createdAt,value
2023-05-01T00:01:47.663Z,97023.38
2023-05-01T00:12:51.346Z,97026.81
2023-05-01T00:19:12.773Z,97018.59
2023-05-01T00:21:39.237Z,97010.91
2023-05-01T00:24:06.035Z,97012.59
2023-05-01T00:30:19.655Z,97007.94
2023-05-01T00:32:46.232Z,97012.91
2023-05-01T00:35:13.311Z,97007.84
2023-05-01T00:37:39.891Z,97007.94
2023-05-01T00:40:07.235Z,96997.44
2023-05-01T00:46:21.785Z,96992.38
2023-05-01T00:48:48.568Z,96993.22
2023-05-01T00:51:15.665Z,96988.06
2023-05-01T00:57:59.325Z,96985.69
2023-05-01T01:00:25.892Z,96977.75
2023-05-01T01:02:52.576Z,96976.91
2023-05-01T01:05:24.409Z,96967.50
2023-05-01T01:08:05.602Z,96975.28
2023-05-01T01:11:08.372Z,96976.31
2023-05-01T01:13:47.030Z,96972.22
2023-05-01T01:20:27.072Z,96962.09
2023-05-01T01:31:50.013Z,96958.97
2023-05-01T01:34:33.434Z,96950.53
2023-05-01T01:37:55.549Z,96944.63
2023-05-01T01:40:31.926Z,96953.66
2023-05-01T01:54:48.736Z,96939.22
2023-05-01T01:57:18.635Z,96940.91
2023-05-01T02:04:20.481Z,96931.22
2023-05-01T02:22:09.273Z,96913.91
2023-05-01T02:24:38.278Z,96908.56
2023-05-01T02:28:03.722Z,96900.59
2023-05-01T02:34:42.122Z,96894.69
2023-05-01T02:37:36.453Z,96889.97
2023-05-01T02:40:04.056Z,96889.44
2023-05-01T02:50:05.711Z,96900.88
2023-05-01T02:52:32.606Z,96890.38
2023-05-01T02:58:48.501Z,96885.97
2023-05-01T03:01:15.150Z,96878.38
2023-05-01T03:08:07.238Z,96875.88
2023-05-01T03:14:29.659Z,96874.19
2023-05-01T03:16:56.669Z,96879.63
2023-05-01T03:19:23.221Z,96870.19
2023-05-01T03:21:49.739Z,96873.84
2023-05-01T03:28:02.178Z,96873.94
2023-05-01T03:30:28.784Z,96868.69
2023-05-01T03:36:36.356Z,96873.50
2023-05-01T03:39:02.850Z,96876.22
2023-05-01T03:45:46.089Z,96870.72
2023-05-01T03:56:16.833Z,96870.91
2023-05-01T03:58:43.685Z,96868.41
2023-05-01T04:04:57.662Z,96859.03
2023-05-01T04:07:24.517Z,96860.59
2023-05-01T04:14:25.380Z,96846.53
2023-05-01T04:16:52.105Z,96856.94
2023-05-01T04:19:18.585Z,96852.34
2023-05-01T04:22:05.751Z,96851.31
2023-05-01T04:24:32.579Z,96856.56
2023-05-01T04:26:59.307Z,96852.78
2023-05-01T04:29:25.929Z,96842.00
2023-05-01T04:31:52.569Z,96855.84
2023-05-01T04:34:19.718Z,96853.06
2023-05-01T04:36:46.286Z,96844.03
2023-05-01T04:39:13.009Z,96851.59
2023-05-01T04:41:39.568Z,96848.56
2023-05-01T04:44:06.041Z,96848.19
2023-05-01T04:46:33.492Z,96855.44
2023-05-01T04:48:59.980Z,96858.09
2023-05-01T04:55:54.643Z,96850.28
2023-05-01T05:01:58.471Z,96855.41
2023-05-01T05:24:30.840Z,96860.31
2023-05-01T05:39:47.954Z,96853.44
2023-05-01T05:46:45.865Z,96851.94
2023-05-01T05:49:12.491Z,96847.91
2023-05-01T05:51:39.062Z,96854.31
2023-05-01T05:54:05.666Z,96861.47
2023-05-01T05:56:32.429Z,96864.13
2023-05-01T05:59:02.958Z,96863.31
2023-05-01T06:01:31.636Z,96865.38
2023-05-01T06:04:58.961Z,96864.69
2023-05-01T06:11:12.838Z,96861.34
2023-05-01T06:13:39.691Z,96863.13
2023-05-01T06:19:48.270Z,96862.63
2023-05-01T06:22:26.340Z,96869.91
2023-05-01T06:29:20.826Z,96865.88
2023-05-01T06:32:00.930Z,96865.94
2023-05-01T06:37:56.135Z,96850.56
2023-05-01T06:55:39.328Z,96844.38
2023-05-01T07:02:26.666Z,96841.16
2023-05-01T07:04:56.790Z,96849.63
2023-05-01T07:11:35.346Z,96847.31
2023-05-01T07:14:01.969Z,96850.56
2023-05-01T07:20:13.508Z,96836.00
2023-05-01T07:32:16.322Z,96842.91
2023-05-01T07:38:50.593Z,96831.50
2023-05-01T07:41:17.162Z,96835.50
2023-05-01T07:43:43.696Z,96839.34
2023-05-01T07:46:10.511Z,96838.63
2023-05-01T07:48:39.023Z,96831.22
2023-05-01T07:51:08.900Z,96834.19
2023-05-01T07:53:35.437Z,96828.94
2023-05-01T07:56:09.764Z,96835.38
2023-05-01T07:58:37.767Z,96831.66
2023-05-01T08:01:11.889Z,96826.88
2023-05-01T08:08:34.463Z,96827.47
2023-05-01T08:11:01.068Z,96836.84
2023-05-01T08:13:27.605Z,96836.75
2023-05-01T08:15:54.288Z,96823.69
2023-05-01T08:18:21.365Z,96821.50
2023-05-01T08:20:48.606Z,96824.75
2023-05-01T08:23:16.580Z,96821.56
2023-05-01T08:25:43.469Z,96818.66
2023-05-01T08:28:10.309Z,96821.22
2023-05-01T08:30:36.930Z,96813.84
2023-05-01T08:33:03.717Z,96816.63
2023-05-01T08:35:30.348Z,96815.06
2023-05-01T08:37:58.065Z,96812.72
2023-05-01T08:40:26.392Z,96810.94
2023-05-01T08:42:54.832Z,96813.25
2023-05-01T08:45:24.700Z,96814.31
2023-05-01T08:47:53.935Z,96818.38
2023-05-01T08:52:53.074Z,96812.22
2023-05-01T08:55:20.833Z,96805.19
2023-05-01T08:57:48.610Z,96809.69
2023-05-01T09:00:19.453Z,96814.69
2023-05-01T09:02:48.499Z,96814.31
2023-05-01T09:05:19.490Z,96819.69
2023-05-01T09:07:46.654Z,96820.75
2023-05-01T09:10:15.428Z,96815.63
2023-05-01T09:12:44.919Z,96814.09
2023-05-01T09:15:11.561Z,96816.38
2023-05-01T09:17:38.584Z,96812.41
2023-05-01T09:20:06.339Z,96818.91
2023-05-01T09:22:33.896Z,96814.16
2023-05-01T09:25:00.929Z,96809.13
2023-05-01T09:27:27.826Z,96806.84
2023-05-01T09:29:54.469Z,96808.63
2023-05-01T09:32:23.527Z,96805.50
2023-05-01T09:34:51.708Z,96801.81
2023-05-01T09:37:32.502Z,96805.19
2023-05-01T09:40:09.477Z,96804.16
2023-05-01T09:42:39.539Z,96802.56
2023-05-01T09:45:17.401Z,96798.03
2023-05-01T09:47:45.302Z,96806.47
2023-05-01T09:50:29.613Z,96796.03
2023-05-01T09:52:56.248Z,96797.50
2023-05-01T09:55:25.393Z,96795.66
2023-05-01T09:57:52.994Z,96799.94
2023-05-01T10:00:22.133Z,96791.00
2023-05-01T10:02:49.518Z,96789.00
2023-05-01T10:05:16.257Z,96789.09
2023-05-01T10:07:59.673Z,96790.63
2023-05-01T10:10:26.559Z,96782.47
2023-05-01T10:12:53.498Z,96787.34
2023-05-01T10:15:26.513Z,96787.41
2023-05-01T10:17:54.736Z,96783.44
2023-05-01T10:20:21.649Z,96779.72
2023-05-01T10:22:48.896Z,96776.56
2023-05-01T10:25:17.631Z,96782.91
2023-05-01T10:27:44.312Z,96787.25
2023-05-01T10:30:11.427Z,96777.88
2023-05-01T10:32:41.783Z,96780.41
2023-05-01T10:35:19.798Z,96774.81
2023-05-01T10:37:59.805Z,96770.09
2023-05-01T10:40:41.320Z,96775.38
2023-05-01T10:43:28.674Z,96767.22
2023-05-01T10:46:20.992Z,96773.97
2023-05-01T10:48:47.538Z,96781.56
2023-05-01T10:51:17.152Z,96776.09
2023-05-01T10:53:45.550Z,96777.06
2023-05-01T10:56:25.314Z,96773.16
2023-05-01T10:58:59.523Z,96772.44
2023-05-01T11:01:31.526Z,96764.81
2023-05-01T11:04:04.293Z,96769.56
2023-05-01T11:06:31.703Z,96768.91
2023-05-01T11:08:58.430Z,96764.28
2023-05-01T11:11:25.104Z,96759.63
2023-05-01T11:14:08.656Z,96767.63
2023-05-01T11:16:38.957Z,96757.63
2023-05-01T11:19:07.649Z,96758.59
2023-05-01T11:21:36.639Z,96758.81
2023-05-01T11:24:04.621Z,96763.03
2023-05-01T11:26:32.654Z,96759.25
2023-05-01T11:29:01.260Z,96754.34
2023-05-01T11:31:29.091Z,96754.88
2023-05-01T11:34:00.334Z,96754.66
2023-05-01T11:36:28.296Z,96753.47
2023-05-01T11:38:56.877Z,96752.22
2023-05-01T11:41:24.799Z,96761.00
2023-05-01T11:43:56.572Z,96759.25
2023-05-01T11:46:31.980Z,96761.25
2023-05-01T11:49:01.230Z,96765.91
2023-05-01T11:51:29.062Z,96759.78
2023-05-01T11:54:07.372Z,96750.47
2023-05-01T11:56:35.065Z,96753.03
2023-05-01T11:59:16.502Z,96756.09
2023-05-01T12:01:45.499Z,96752.91
2023-05-01T12:04:13.306Z,96759.50
2023-05-01T12:06:45.717Z,96761.94
2023-05-01T12:09:20.324Z,96755.09
2023-05-01T12:11:50.533Z,96760.34
2023-05-01T12:14:19.466Z,96750.31
2023-05-01T12:16:46.963Z,96747.69
2023-05-01T12:19:15.166Z,96754.78
2023-05-01T12:21:42.036Z,96753.28
2023-05-01T12:24:17.924Z,96761.16
2023-05-01T12:26:45.484Z,96750.75
2023-05-01T12:29:12.496Z,96756.81
2023-05-01T12:31:49.873Z,96744.13
2023-05-01T12:34:16.743Z,96746.66
2023-05-01T12:36:53.351Z,96741.84
2023-05-01T12:39:20.502Z,96750.00
2023-05-01T12:41:49.595Z,96748.00
2023-05-01T12:44:19.242Z,96747.16
2023-05-01T12:46:53.154Z,96757.56
2023-05-01T12:49:21.171Z,96751.16
2023-05-01T12:51:52.570Z,96752.81
2023-05-01T12:54:34.085Z,96754.22
2023-05-01T12:57:11.049Z,96754.09
2023-05-01T12:59:39.740Z,96747.16
2023-05-01T13:02:07.685Z,96752.13
2023-05-01T13:04:35.199Z,96751.72
2023-05-01T13:07:02.656Z,96737.81
2023-05-01T13:09:32.581Z,96738.41
2023-05-01T13:12:05.911Z,96740.03
2023-05-01T13:14:43.385Z,96734.44
2023-05-01T13:17:11.710Z,96745.72
2023-05-01T13:19:39.382Z,96740.72
2023-05-01T13:22:06.180Z,96744.63
2023-05-01T13:24:44.681Z,96738.63
2023-05-01T13:27:12.460Z,96742.16
2023-05-01T13:29:39.892Z,96748.38
2023-05-01T13:32:10.273Z,96742.38
2023-05-01T13:34:37.691Z,96746.09
2023-05-01T13:37:04.217Z,96750.50
2023-05-01T13:39:30.786Z,96748.06
2023-05-01T13:41:57.633Z,96742.66
2023-05-01T13:44:24.155Z,96741.03
2023-05-01T13:46:50.677Z,96741.28
2023-05-01T13:49:21.792Z,96743.66
2023-05-01T13:51:48.824Z,96738.81
2023-05-01T13:54:16.798Z,96736.19
2023-05-01T13:56:43.313Z,96732.59
2023-05-01T14:07:08.618Z,96736.38
2023-05-01T14:09:36.507Z,96738.56
2023-05-01T14:15:50.416Z,96734.19
2023-05-01T14:18:20.780Z,96728.66
2023-05-01T14:20:54.062Z,96738.03
2023-05-01T14:23:26.232Z,96736.25
2023-05-01T14:25:52.723Z,96749.03
2023-05-01T14:28:37.162Z,96748.63
2023-05-01T14:31:32.571Z,96748.06
2023-05-01T14:37:01.993Z,96749.69
2023-05-01T14:39:32.966Z,96754.50
2023-05-01T14:42:06.413Z,96747.78
2023-05-01T14:44:32.923Z,96736.59
2023-05-01T14:47:00.353Z,96743.50
2023-05-01T14:49:26.972Z,96754.22
2023-05-01T14:51:54.126Z,96749.16
2023-05-01T14:54:21.151Z,96752.22
2023-05-01T14:56:48.944Z,96743.63
2023-05-01T14:59:16.373Z,96753.69
2023-05-01T15:01:43.982Z,96753.28
2023-05-01T15:04:11.172Z,96754.81
2023-05-01T15:06:37.907Z,96756.88
2023-05-01T15:09:07.238Z,96756.75
2023-05-01T15:11:33.758Z,96755.91
2023-05-01T15:14:00.397Z,96752.78
2023-05-01T15:16:27.819Z,96758.09
2023-05-01T15:18:54.584Z,96755.31
2023-05-01T15:21:21.098Z,96755.91
2023-05-01T15:23:47.771Z,96763.63
2023-05-01T15:26:14.325Z,96757.47
2023-05-01T15:28:40.902Z,96758.16
2023-05-01T15:31:07.532Z,96756.88
2023-05-01T15:33:34.186Z,96759.03
2023-05-01T15:36:00.998Z,96762.41
2023-05-01T15:38:28.374Z,96762.97
2023-05-01T15:40:55.068Z,96761.34
2023-05-01T15:43:22.809Z,96762.22
2023-05-01T15:45:50.269Z,96761.53
2023-05-01T15:48:16.945Z,96759.91
2023-05-01T15:50:43.435Z,96766.25
2023-05-01T15:53:10.006Z,96772.94
2023-05-01T15:55:36.803Z,96771.44
2023-05-01T15:58:03.599Z,96773.09
2023-05-01T16:00:30.934Z,96782.44
2023-05-01T16:02:57.539Z,96784.78
2023-05-01T16:05:26.904Z,96787.44
2023-05-01T16:08:00.474Z,96790.63
2023-05-01T16:10:27.678Z,96789.47
2023-05-01T16:12:54.369Z,96783.47
2023-05-01T16:15:22.752Z,96784.47
2023-05-01T16:17:51.394Z,96790.13
2023-05-01T16:20:18.101Z,96794.47
2023-05-01T16:22:44.786Z,96801.97
2023-05-01T16:25:12.163Z,96803.59
2023-05-01T16:27:44.197Z,96807.56
2023-05-01T16:30:14.275Z,96808.81
2023-05-01T16:32:41.614Z,96812.97
2023-05-01T16:35:11.989Z,96807.78
2023-05-01T16:37:39.539Z,96805.03
2023-05-01T16:40:07.487Z,96814.66
2023-05-01T16:42:34.207Z,96818.41
2023-05-01T16:45:13.480Z,96820.56
2023-05-01T16:47:40.008Z,96833.47
2023-05-01T16:50:08.599Z,96832.34
2023-05-01T16:52:35.272Z,96829.84
2023-05-01T16:55:01.960Z,96831.91
2023-05-01T16:57:28.896Z,96840.88
2023-05-01T16:59:55.359Z,96836.13
2023-05-01T18:37:53.854Z,96929.69
2023-05-01T18:44:13.247Z,96949.03
2023-05-01T18:46:39.881Z,96958.19
2023-05-01T19:10:32.411Z,96991.72
2023-05-01T19:13:01.476Z,96998.09
2023-05-01T19:22:42.478Z,97007.78
2023-05-01T19:31:53.587Z,97012.81
2023-05-01T19:38:11.262Z,97018.50
2023-05-01T19:40:39.648Z,97015.25
2023-05-01T19:53:45.463Z,97032.50
2023-05-01T19:59:59.923Z,97029.16
2023-05-01T20:02:26.792Z,97030.19
2023-05-01T20:08:44.388Z,97041.47
2023-05-01T20:11:11.357Z,97040.00
2023-05-01T20:29:26.997Z,97043.28
2023-05-01T20:36:25.337Z,97036.09
2023-05-01T20:38:53.161Z,97041.25
2023-05-01T20:45:21.226Z,97049.06
2023-05-01T20:47:48.778Z,97049.66
2023-05-01T20:50:52.456Z,97050.13
2023-05-01T20:57:00.164Z,97059.50
2023-05-01T20:59:26.701Z,97064.91
2023-05-01T23:31:20.902Z,97138.25
2023-05-01T23:33:47.427Z,97135.97
2023-05-01T23:47:17.165Z,97133.44
2023-05-01T23:54:16.244Z,97137.28
2023-05-01T23:56:42.811Z,97144.44
2023-05-01T23:59:09.304Z,97132.00
